sensor_id;sensor_type;location;lat;lon;timestamp;P1;durP1;ratioP1;P2;durP2;ratioP2
53309;SDS011;39197;53.200;5.792;2023-07-30T00:02:18;51.22;;;11.60;;
53309;SDS011;39197;53.200;5.792;2023-07-30T00:04:44;44.05;;;12.20;;
53309;SDS011;39197;53.200;5.792;2023-07-30T00:07:10;45.05;;;12.15;;
53309;SDS011;39197;53.200;5.792;2023-07-30T00:09:37;43.88;;;12.10;;
53309;SDS011;39197;53.200;5.792;2023-07-30T00:12:04;37.50;;;11.40;;
53309;SDS011;39197;53.200;5.792;2023-07-30T00:14:30;33.47;;;11.10;;
53309;SDS011;39197;53.200;5.792;2023-07-30T00:16:56;34.70;;;11.27;;
53309;SDS011;39197;53.200;5.792;2023-07-30T00:19:21;44.58;;;12.73;;
53309;SDS011;39197;53.200;5.792;2023-07-30T00:21:47;45.88;;;12.30;;
53309;SDS011;39197;53.200;5.792;2023-07-30T00:24:13;33.33;;;11.77;;
53309;SDS011;39197;53.200;5.792;2023-07-30T00:26:39;33.38;;;9.98;;
53309;SDS011;39197;53.200;5.792;2023-07-30T00:29:05;38.50;;;11.38;;
53309;SDS011;39197;53.200;5.792;2023-07-30T00:31:31;36.08;;;11.52;;
53309;SDS011;39197;53.200;5.792;2023-07-30T00:33:57;36.35;;;11.35;;
53309;SDS011;39197;53.200;5.792;2023-07-30T00:36:23;31.88;;;10.50;;
53309;SDS011;39197;53.200;5.792;2023-07-30T00:38:49;44.63;;;10.43;;
53309;SDS011;39197;53.200;5.792;2023-07-30T00:41:14;32.90;;;10.48;;
53309;SDS011;39197;53.200;5.792;2023-07-30T00:43:40;39.20;;;10.63;;
53309;SDS011;39197;53.200;5.792;2023-07-30T00:46:06;42.10;;;11.05;;
53309;SDS011;39197;53.200;5.792;2023-07-30T00:48:32;43.75;;;11.38;;
53309;SDS011;39197;53.200;5.792;2023-07-30T00:50:58;41.10;;;14.30;;
53309;SDS011;39197;53.200;5.792;2023-07-30T00:53:24;38.33;;;10.85;;
53309;SDS011;39197;53.200;5.792;2023-07-30T00:55:51;41.28;;;11.68;;
53309;SDS011;39197;53.200;5.792;2023-07-30T00:58:17;45.58;;;11.23;;
53309;SDS011;39197;53.200;5.792;2023-07-30T01:00:45;41.30;;;10.30;;
53309;SDS011;39197;53.200;5.792;2023-07-30T01:03:12;40.58;;;11.65;;
53309;SDS011;39197;53.200;5.792;2023-07-30T01:05:38;42.55;;;12.07;;
53309;SDS011;39197;53.200;5.792;2023-07-30T01:08:03;44.50;;;12.13;;
53309;SDS011;39197;53.200;5.792;2023-07-30T01:10:30;41.70;;;10.85;;
53309;SDS011;39197;53.200;5.792;2023-07-30T01:12:57;40.53;;;12.50;;
53309;SDS011;39197;53.200;5.792;2023-07-30T01:15:26;43.75;;;10.82;;
53309;SDS011;39197;53.200;5.792;2023-07-30T01:17:53;40.20;;;10.35;;
53309;SDS011;39197;53.200;5.792;2023-07-30T01:20:19;43.97;;;10.35;;
53309;SDS011;39197;53.200;5.792;2023-07-30T01:22:46;40.03;;;10.73;;
53309;SDS011;39197;53.200;5.792;2023-07-30T01:25:12;42.85;;;10.35;;
53309;SDS011;39197;53.200;5.792;2023-07-30T01:27:39;45.65;;;10.98;;
53309;SDS011;39197;53.200;5.792;2023-07-30T01:30:17;35.80;;;11.27;;
53309;SDS011;39197;53.200;5.792;2023-07-30T01:32:49;47.58;;;11.32;;
53309;SDS011;39197;53.200;5.792;2023-07-30T01:35:16;36.75;;;9.57;;
53309;SDS011;39197;53.200;5.792;2023-07-30T01:37:43;39.40;;;10.38;;
53309;SDS011;39197;53.200;5.792;2023-07-30T01:40:10;34.78;;;10.07;;
53309;SDS011;39197;53.200;5.792;2023-07-30T01:42:37;35.80;;;9.60;;
53309;SDS011;39197;53.200;5.792;2023-07-30T01:45:03;32.90;;;8.65;;
53309;SDS011;39197;53.200;5.792;2023-07-30T01:47:30;40.75;;;8.98;;
53309;SDS011;39197;53.200;5.792;2023-07-30T01:49:55;33.63;;;9.35;;
53309;SDS011;39197;53.200;5.792;2023-07-30T01:52:21;32.13;;;8.98;;
53309;SDS011;39197;53.200;5.792;2023-07-30T01:54:47;39.30;;;8.43;;
53309;SDS011;39197;53.200;5.792;2023-07-30T01:57:12;34.25;;;8.60;;
53309;SDS011;39197;53.200;5.792;2023-07-30T01:59:38;30.08;;;8.18;;
53309;SDS011;39197;53.200;5.792;2023-07-30T02:02:04;41.58;;;7.97;;
53309;SDS011;39197;53.200;5.792;2023-07-30T02:04:30;39.72;;;9.35;;
53309;SDS011;39197;53.200;5.792;2023-07-30T02:06:55;42.17;;;8.45;;
53309;SDS011;39197;53.200;5.792;2023-07-30T02:09:21;34.15;;;8.52;;
53309;SDS011;39197;53.200;5.792;2023-07-30T02:11:47;42.95;;;10.20;;
53309;SDS011;39197;53.200;5.792;2023-07-30T02:14:13;43.47;;;10.55;;
53309;SDS011;39197;53.200;5.792;2023-07-30T02:16:39;41.53;;;8.90;;
53309;SDS011;39197;53.200;5.792;2023-07-30T02:19:05;33.95;;;9.27;;
53309;SDS011;39197;53.200;5.792;2023-07-30T02:21:30;35.90;;;8.88;;
53309;SDS011;39197;53.200;5.792;2023-07-30T02:23:58;31.38;;;9.20;;
53309;SDS011;39197;53.200;5.792;2023-07-30T02:26:24;35.53;;;9.60;;
53309;SDS011;39197;53.200;5.792;2023-07-30T02:28:50;34.40;;;9.43;;
53309;SDS011;39197;53.200;5.792;2023-07-30T02:31:15;40.17;;;8.73;;
53309;SDS011;39197;53.200;5.792;2023-07-30T02:33:41;28.83;;;8.18;;
53309;SDS011;39197;53.200;5.792;2023-07-30T02:36:06;31.50;;;7.40;;
53309;SDS011;39197;53.200;5.792;2023-07-30T02:38:32;22.10;;;5.65;;
53309;SDS011;39197;53.200;5.792;2023-07-30T02:40:57;31.05;;;7.05;;
53309;SDS011;39197;53.200;5.792;2023-07-30T02:43:23;35.70;;;7.00;;
53309;SDS011;39197;53.200;5.792;2023-07-30T02:45:49;27.85;;;5.97;;
53309;SDS011;39197;53.200;5.792;2023-07-30T02:48:14;27.52;;;6.25;;
53309;SDS011;39197;53.200;5.792;2023-07-30T02:50:40;34.63;;;7.30;;
53309;SDS011;39197;53.200;5.792;2023-07-30T02:53:06;27.38;;;5.85;;
53309;SDS011;39197;53.200;5.792;2023-07-30T02:55:31;27.50;;;6.03;;
53309;SDS011;39197;53.200;5.792;2023-07-30T02:57:57;29.83;;;5.50;;
53309;SDS011;39197;53.200;5.792;2023-07-30T03:00:22;18.70;;;3.97;;
53309;SDS011;39197;53.200;5.792;2023-07-30T03:02:48;23.75;;;4.80;;
53309;SDS011;39197;53.200;5.792;2023-07-30T03:05:14;24.58;;;4.90;;
53309;SDS011;39197;53.200;5.792;2023-07-30T03:07:39;21.38;;;4.55;;
53309;SDS011;39197;53.200;5.792;2023-07-30T03:10:05;23.65;;;5.28;;
53309;SDS011;39197;53.200;5.792;2023-07-30T03:12:31;22.67;;;4.18;;
53309;SDS011;39197;53.200;5.792;2023-07-30T03:14:56;21.50;;;5.45;;
53309;SDS011;39197;53.200;5.792;2023-07-30T03:17:22;24.25;;;4.80;;
53309;SDS011;39197;53.200;5.792;2023-07-30T03:19:48;23.13;;;4.75;;
53309;SDS011;39197;53.200;5.792;2023-07-30T03:22:13;18.95;;;4.65;;
53309;SDS011;39197;53.200;5.792;2023-07-30T03:24:39;21.77;;;4.03;;
53309;SDS011;39197;53.200;5.792;2023-07-30T03:27:04;15.57;;;3.03;;
53309;SDS011;39197;53.200;5.792;2023-07-30T03:29:30;12.45;;;2.90;;
53309;SDS011;39197;53.200;5.792;2023-07-30T03:31:56;12.20;;;3.00;;
53309;SDS011;39197;53.200;5.792;2023-07-30T03:34:22;12.70;;;3.03;;
53309;SDS011;39197;53.200;5.792;2023-07-30T03:36:47;16.75;;;3.63;;
53309;SDS011;39197;53.200;5.792;2023-07-30T03:39:13;12.77;;;2.45;;
53309;SDS011;39197;53.200;5.792;2023-07-30T03:41:38;15.10;;;2.22;;
53309;SDS011;39197;53.200;5.792;2023-07-30T03:44:04;13.50;;;1.80;;
53309;SDS011;39197;53.200;5.792;2023-07-30T03:46:29;12.13;;;2.50;;
53309;SDS011;39197;53.200;5.792;2023-07-30T03:48:55;15.20;;;2.08;;
53309;SDS011;39197;53.200;5.792;2023-07-30T03:51:21;11.90;;;1.70;;
53309;SDS011;39197;53.200;5.792;2023-07-30T03:53:47;15.75;;;2.33;;
53309;SDS011;39197;53.200;5.792;2023-07-30T03:56:12;15.45;;;1.85;;
53309;SDS011;39197;53.200;5.792;2023-07-30T03:58:38;13.93;;;2.20;;
53309;SDS011;39197;53.200;5.792;2023-07-30T04:01:04;11.65;;;1.48;;
53309;SDS011;39197;53.200;5.792;2023-07-30T04:03:29;10.20;;;2.08;;
53309;SDS011;39197;53.200;5.792;2023-07-30T04:05:55;7.78;;;1.13;;
53309;SDS011;39197;53.200;5.792;2023-07-30T04:08:20;17.23;;;2.45;;
53309;SDS011;39197;53.200;5.792;2023-07-30T04:10:46;13.10;;;1.52;;
53309;SDS011;39197;53.200;5.792;2023-07-30T04:13:12;12.40;;;2.05;;
53309;SDS011;39197;53.200;5.792;2023-07-30T04:15:37;8.40;;;1.65;;
53309;SDS011;39197;53.200;5.792;2023-07-30T04:18:03;13.57;;;2.00;;
53309;SDS011;39197;53.200;5.792;2023-07-30T04:20:28;11.73;;;2.50;;
53309;SDS011;39197;53.200;5.792;2023-07-30T04:22:54;12.70;;;1.75;;
53309;SDS011;39197;53.200;5.792;2023-07-30T04:25:20;18.20;;;1.40;;
53309;SDS011;39197;53.200;5.792;2023-07-30T04:27:45;11.60;;;1.50;;
53309;SDS011;39197;53.200;5.792;2023-07-30T04:30:11;18.50;;;2.10;;
53309;SDS011;39197;53.200;5.792;2023-07-30T04:32:37;10.85;;;2.13;;
53309;SDS011;39197;53.200;5.792;2023-07-30T04:35:02;15.57;;;1.63;;
53309;SDS011;39197;53.200;5.792;2023-07-30T04:37:28;15.82;;;2.20;;
53309;SDS011;39197;53.200;5.792;2023-07-30T04:39:54;11.02;;;1.45;;
53309;SDS011;39197;53.200;5.792;2023-07-30T04:42:20;11.20;;;1.92;;
53309;SDS011;39197;53.200;5.792;2023-07-30T04:44:45;15.70;;;2.10;;
53309;SDS011;39197;53.200;5.792;2023-07-30T04:47:11;14.50;;;2.00;;
53309;SDS011;39197;53.200;5.792;2023-07-30T04:49:37;11.85;;;2.75;;
53309;SDS011;39197;53.200;5.792;2023-07-30T04:52:05;12.57;;;2.28;;
53309;SDS011;39197;53.200;5.792;2023-07-30T04:54:32;17.88;;;2.78;;
53309;SDS011;39197;53.200;5.792;2023-07-30T04:56:57;12.02;;;2.08;;
53309;SDS011;39197;53.200;5.792;2023-07-30T04:59:23;9.95;;;1.80;;
53309;SDS011;39197;53.200;5.792;2023-07-30T05:01:49;14.95;;;2.42;;
53309;SDS011;39197;53.200;5.792;2023-07-30T05:04:14;12.13;;;1.70;;
53309;SDS011;39197;53.200;5.792;2023-07-30T05:06:40;13.75;;;2.55;;
53309;SDS011;39197;53.200;5.792;2023-07-30T05:09:05;11.95;;;1.83;;
53309;SDS011;39197;53.200;5.792;2023-07-30T05:11:31;12.68;;;1.80;;
53309;SDS011;39197;53.200;5.792;2023-07-30T05:13:56;12.55;;;1.77;;
53309;SDS011;39197;53.200;5.792;2023-07-30T05:16:22;15.10;;;1.85;;
53309;SDS011;39197;53.200;5.792;2023-07-30T05:18:48;14.50;;;2.20;;
53309;SDS011;39197;53.200;5.792;2023-07-30T05:21:13;13.23;;;1.83;;
53309;SDS011;39197;53.200;5.792;2023-07-30T05:23:39;12.68;;;2.00;;
53309;SDS011;39197;53.200;5.792;2023-07-30T05:26:04;15.93;;;3.58;;
53309;SDS011;39197;53.200;5.792;2023-07-30T05:28:30;12.45;;;1.60;;
53309;SDS011;39197;53.200;5.792;2023-07-30T05:30:56;15.70;;;1.92;;
53309;SDS011;39197;53.200;5.792;2023-07-30T05:33:21;14.45;;;1.85;;
53309;SDS011;39197;53.200;5.792;2023-07-30T05:35:47;13.20;;;1.77;;
53309;SDS011;39197;53.200;5.792;2023-07-30T05:38:13;18.90;;;2.90;;
53309;SDS011;39197;53.200;5.792;2023-07-30T05:40:38;6.72;;;1.77;;
53309;SDS011;39197;53.200;5.792;2023-07-30T05:43:04;16.05;;;2.70;;
53309;SDS011;39197;53.200;5.792;2023-07-30T05:45:29;12.30;;;2.22;;
53309;SDS011;39197;53.200;5.792;2023-07-30T05:47:55;11.30;;;2.33;;
53309;SDS011;39197;53.200;5.792;2023-07-30T05:50:21;13.38;;;1.67;;
53309;SDS011;39197;53.200;5.792;2023-07-30T05:52:46;14.02;;;1.98;;
53309;SDS011;39197;53.200;5.792;2023-07-30T05:55:12;11.32;;;1.90;;
53309;SDS011;39197;53.200;5.792;2023-07-30T05:57:37;9.30;;;1.63;;
53309;SDS011;39197;53.200;5.792;2023-07-30T06:00:03;11.20;;;1.95;;
53309;SDS011;39197;53.200;5.792;2023-07-30T06:02:29;11.55;;;2.28;;
53309;SDS011;39197;53.200;5.792;2023-07-30T06:04:55;12.70;;;2.35;;
53309;SDS011;39197;53.200;5.792;2023-07-30T06:07:20;11.75;;;1.67;;
53309;SDS011;39197;53.200;5.792;2023-07-30T06:09:46;12.55;;;2.25;;
53309;SDS011;39197;53.200;5.792;2023-07-30T06:12:11;17.80;;;2.58;;
53309;SDS011;39197;53.200;5.792;2023-07-30T06:14:37;11.18;;;1.88;;
53309;SDS011;39197;53.200;5.792;2023-07-30T06:17:03;12.80;;;2.13;;
53309;SDS011;39197;53.200;5.792;2023-07-30T06:19:28;14.05;;;1.70;;
53309;SDS011;39197;53.200;5.792;2023-07-30T06:21:54;13.75;;;2.05;;
53309;SDS011;39197;53.200;5.792;2023-07-30T06:24:20;12.00;;;1.80;;
53309;SDS011;39197;53.200;5.792;2023-07-30T06:26:45;9.45;;;1.75;;
53309;SDS011;39197;53.200;5.792;2023-07-30T06:29:11;8.23;;;1.00;;
53309;SDS011;39197;53.200;5.792;2023-07-30T06:31:36;13.25;;;2.58;;
53309;SDS011;39197;53.200;5.792;2023-07-30T06:34:02;18.00;;;2.08;;
53309;SDS011;39197;53.200;5.792;2023-07-30T06:36:28;15.40;;;3.35;;
53309;SDS011;39197;53.200;5.792;2023-07-30T06:38:53;7.38;;;1.75;;
53309;SDS011;39197;53.200;5.792;2023-07-30T06:41:19;11.90;;;1.60;;
53309;SDS011;39197;53.200;5.792;2023-07-30T06:43:44;13.20;;;2.42;;
53309;SDS011;39197;53.200;5.792;2023-07-30T06:46:10;12.35;;;1.63;;
53309;SDS011;39197;53.200;5.792;2023-07-30T06:48:36;12.85;;;1.85;;
53309;SDS011;39197;53.200;5.792;2023-07-30T06:51:05;13.30;;;2.67;;
53309;SDS011;39197;53.200;5.792;2023-07-30T06:53:31;11.63;;;1.35;;
53309;SDS011;39197;53.200;5.792;2023-07-30T06:55:57;15.27;;;2.15;;
53309;SDS011;39197;53.200;5.792;2023-07-30T06:58:22;8.77;;;1.23;;
53309;SDS011;39197;53.200;5.792;2023-07-30T07:00:48;10.00;;;1.45;;
53309;SDS011;39197;53.200;5.792;2023-07-30T07:03:13;8.93;;;1.48;;
53309;SDS011;39197;53.200;5.792;2023-07-30T07:05:40;12.52;;;2.78;;
53309;SDS011;39197;53.200;5.792;2023-07-30T07:08:06;9.75;;;1.88;;
53309;SDS011;39197;53.200;5.792;2023-07-30T07:10:31;10.73;;;1.92;;
53309;SDS011;39197;53.200;5.792;2023-07-30T07:12:57;11.48;;;1.65;;
53309;SDS011;39197;53.200;5.792;2023-07-30T07:15:22;8.85;;;1.77;;
53309;SDS011;39197;53.200;5.792;2023-07-30T07:17:48;11.18;;;1.55;;
53309;SDS011;39197;53.200;5.792;2023-07-30T07:20:14;12.80;;;2.33;;
53309;SDS011;39197;53.200;5.792;2023-07-30T07:22:39;9.20;;;1.05;;
53309;SDS011;39197;53.200;5.792;2023-07-30T07:25:05;7.57;;;1.45;;
53309;SDS011;39197;53.200;5.792;2023-07-30T07:27:31;13.27;;;2.50;;
53309;SDS011;39197;53.200;5.792;2023-07-30T07:29:56;15.68;;;2.05;;
53309;SDS011;39197;53.200;5.792;2023-07-30T07:32:22;9.52;;;2.03;;
53309;SDS011;39197;53.200;5.792;2023-07-30T07:34:48;7.47;;;1.02;;
53309;SDS011;39197;53.200;5.792;2023-07-30T07:37:15;11.10;;;1.42;;
53309;SDS011;39197;53.200;5.792;2023-07-30T07:39:42;16.92;;;2.42;;
53309;SDS011;39197;53.200;5.792;2023-07-30T07:42:08;8.88;;;1.30;;
53309;SDS011;39197;53.200;5.792;2023-07-30T07:44:34;8.23;;;2.17;;
53309;SDS011;39197;53.200;5.792;2023-07-30T07:47:00;10.35;;;1.80;;
53309;SDS011;39197;53.200;5.792;2023-07-30T07:49:25;12.48;;;2.25;;
53309;SDS011;39197;53.200;5.792;2023-07-30T07:51:51;14.55;;;1.88;;
53309;SDS011;39197;53.200;5.792;2023-07-30T07:54:16;7.78;;;1.73;;
53309;SDS011;39197;53.200;5.792;2023-07-30T07:56:42;14.85;;;2.53;;
53309;SDS011;39197;53.200;5.792;2023-07-30T07:59:08;13.75;;;2.05;;
53309;SDS011;39197;53.200;5.792;2023-07-30T08:01:33;15.52;;;2.53;;
53309;SDS011;39197;53.200;5.792;2023-07-30T08:03:59;17.90;;;2.55;;
53309;SDS011;39197;53.200;5.792;2023-07-30T08:06:24;17.10;;;2.92;;
53309;SDS011;39197;53.200;5.792;2023-07-30T08:08:50;16.20;;;2.90;;
53309;SDS011;39197;53.200;5.792;2023-07-30T08:11:16;17.83;;;1.70;;
53309;SDS011;39197;53.200;5.792;2023-07-30T08:13:41;12.93;;;1.95;;
53309;SDS011;39197;53.200;5.792;2023-07-30T08:16:07;13.45;;;1.90;;
53309;SDS011;39197;53.200;5.792;2023-07-30T08:18:33;14.10;;;2.05;;
53309;SDS011;39197;53.200;5.792;2023-07-30T08:20:59;12.68;;;1.60;;
53309;SDS011;39197;53.200;5.792;2023-07-30T08:23:25;5.10;;;0.90;;
53309;SDS011;39197;53.200;5.792;2023-07-30T08:25:51;12.13;;;1.45;;
53309;SDS011;39197;53.200;5.792;2023-07-30T08:28:17;11.68;;;2.00;;
53309;SDS011;39197;53.200;5.792;2023-07-30T08:30:42;7.50;;;1.00;;
53309;SDS011;39197;53.200;5.792;2023-07-30T08:33:08;12.70;;;1.50;;
53309;SDS011;39197;53.200;5.792;2023-07-30T08:35:34;9.20;;;1.42;;
53309;SDS011;39197;53.200;5.792;2023-07-30T08:37:59;7.15;;;1.35;;
53309;SDS011;39197;53.200;5.792;2023-07-30T08:40:25;10.45;;;1.40;;
53309;SDS011;39197;53.200;5.792;2023-07-30T08:42:51;10.23;;;1.70;;
53309;SDS011;39197;53.200;5.792;2023-07-30T08:45:17;9.82;;;1.25;;
53309;SDS011;39197;53.200;5.792;2023-07-30T08:47:44;8.38;;;0.88;;
53309;SDS011;39197;53.200;5.792;2023-07-30T08:50:10;7.32;;;1.00;;
53309;SDS011;39197;53.200;5.792;2023-07-30T08:52:36;9.45;;;1.70;;
53309;SDS011;39197;53.200;5.792;2023-07-30T08:55:05;9.43;;;1.63;;
53309;SDS011;39197;53.200;5.792;2023-07-30T08:57:31;5.15;;;0.88;;
53309;SDS011;39197;53.200;5.792;2023-07-30T09:00:05;9.55;;;1.83;;
53309;SDS011;39197;53.200;5.792;2023-07-30T09:02:43;9.93;;;1.30;;
53309;SDS011;39197;53.200;5.792;2023-07-30T09:05:12;10.43;;;1.50;;
53309;SDS011;39197;53.200;5.792;2023-07-30T09:07:38;10.73;;;1.67;;
53309;SDS011;39197;53.200;5.792;2023-07-30T09:10:04;14.68;;;1.67;;
53309;SDS011;39197;53.200;5.792;2023-07-30T09:12:31;11.35;;;1.77;;
53309;SDS011;39197;53.200;5.792;2023-07-30T09:14:57;7.57;;;1.55;;
53309;SDS011;39197;53.200;5.792;2023-07-30T09:17:23;13.95;;;2.15;;
53309;SDS011;39197;53.200;5.792;2023-07-30T09:19:50;9.15;;;1.60;;
53309;SDS011;39197;53.200;5.792;2023-07-30T09:22:19;14.32;;;2.60;;
53309;SDS011;39197;53.200;5.792;2023-07-30T09:24:55;6.70;;;1.15;;
53309;SDS011;39197;53.200;5.792;2023-07-30T09:27:23;12.98;;;2.10;;
53309;SDS011;39197;53.200;5.792;2023-07-30T09:29:54;11.55;;;2.45;;
53309;SDS011;39197;53.200;5.792;2023-07-30T09:32:24;8.13;;;1.65;;
53309;SDS011;39197;53.200;5.792;2023-07-30T09:34:54;11.77;;;1.70;;
53309;SDS011;39197;53.200;5.792;2023-07-30T09:37:20;10.15;;;2.10;;
53309;SDS011;39197;53.200;5.792;2023-07-30T09:39:48;7.68;;;1.15;;
53309;SDS011;39197;53.200;5.792;2023-07-30T09:42:14;12.80;;;1.30;;
53309;SDS011;39197;53.200;5.792;2023-07-30T09:44:40;8.05;;;1.38;;
53309;SDS011;39197;53.200;5.792;2023-07-30T09:47:12;8.50;;;0.60;;
53309;SDS011;39197;53.200;5.792;2023-07-30T09:52:03;11.70;;;1.30;;
53309;SDS011;39197;53.200;5.792;2023-07-30T09:54:30;12.88;;;1.52;;
53309;SDS011;39197;53.200;5.792;2023-07-30T09:56:57;10.80;;;1.35;;
53309;SDS011;39197;53.200;5.792;2023-07-30T09:59:23;12.10;;;2.05;;
53309;SDS011;39197;53.200;5.792;2023-07-30T10:01:49;11.05;;;1.92;;
53309;SDS011;39197;53.200;5.792;2023-07-30T10:04:20;11.25;;;2.40;;
53309;SDS011;39197;53.200;5.792;2023-07-30T10:07:01;6.70;;;1.83;;
53309;SDS011;39197;53.200;5.792;2023-07-30T10:09:42;7.07;;;1.55;;
53309;SDS011;39197;53.200;5.792;2023-07-30T10:12:14;9.30;;;1.20;;
53309;SDS011;39197;53.200;5.792;2023-07-30T10:14:42;10.30;;;1.50;;
53309;SDS011;39197;53.200;5.792;2023-07-30T10:17:09;10.82;;;1.45;;
53309;SDS011;39197;53.200;5.792;2023-07-30T10:19:36;9.27;;;0.73;;
53309;SDS011;39197;53.200;5.792;2023-07-30T10:24:37;10.20;;;1.45;;
53309;SDS011;39197;53.200;5.792;2023-07-30T10:27:22;7.97;;;1.58;;
53309;SDS011;39197;53.200;5.792;2023-07-30T10:29:51;12.60;;;1.83;;
53309;SDS011;39197;53.200;5.792;2023-07-30T10:43:34;15.68;;;3.28;;
53309;SDS011;39197;53.200;5.792;2023-07-30T10:46:09;8.02;;;1.10;;
53309;SDS011;39197;53.200;5.792;2023-07-30T10:48:37;9.95;;;1.77;;
53309;SDS011;39197;53.200;5.792;2023-07-30T10:51:11;11.10;;;1.77;;
53309;SDS011;39197;53.200;5.792;2023-07-30T10:53:38;9.63;;;1.48;;
53309;SDS011;39197;53.200;5.792;2023-07-30T10:56:07;9.35;;;1.10;;
53309;SDS011;39197;53.200;5.792;2023-07-30T10:58:34;6.25;;;1.23;;
53309;SDS011;39197;53.200;5.792;2023-07-30T11:01:05;8.45;;;1.48;;
53309;SDS011;39197;53.200;5.792;2023-07-30T11:03:32;7.15;;;1.38;;
53309;SDS011;39197;53.200;5.792;2023-07-30T11:05:58;8.63;;;1.52;;
53309;SDS011;39197;53.200;5.792;2023-07-30T11:08:36;9.25;;;1.30;;
53309;SDS011;39197;53.200;5.792;2023-07-30T11:13:39;2.42;;;0.77;;
53309;SDS011;39197;53.200;5.792;2023-07-30T11:16:11;7.43;;;1.52;;
53309;SDS011;39197;53.200;5.792;2023-07-30T11:18:37;8.75;;;1.45;;
53309;SDS011;39197;53.200;5.792;2023-07-30T11:21:13;8.50;;;2.03;;
53309;SDS011;39197;53.200;5.792;2023-07-30T11:23:40;8.07;;;1.67;;
53309;SDS011;39197;53.200;5.792;2023-07-30T11:26:08;9.93;;;1.45;;
53309;SDS011;39197;53.200;5.792;2023-07-30T11:28:38;12.37;;;2.63;;
53309;SDS011;39197;53.200;5.792;2023-07-30T11:31:09;7.55;;;1.42;;
53309;SDS011;39197;53.200;5.792;2023-07-30T11:33:36;7.53;;;2.08;;
53309;SDS011;39197;53.200;5.792;2023-07-30T11:36:06;6.85;;;1.30;;
53309;SDS011;39197;53.200;5.792;2023-07-30T11:38:34;6.93;;;0.85;;
53309;SDS011;39197;53.200;5.792;2023-07-30T11:41:00;4.13;;;1.00;;
53309;SDS011;39197;53.200;5.792;2023-07-30T11:43:27;7.47;;;1.27;;
53309;SDS011;39197;53.200;5.792;2023-07-30T11:46:15;9.30;;;1.73;;
53309;SDS011;39197;53.200;5.792;2023-07-30T11:48:40;11.05;;;1.90;;
53309;SDS011;39197;53.200;5.792;2023-07-30T11:51:17;5.00;;;1.10;;
53309;SDS011;39197;53.200;5.792;2023-07-30T11:53:47;10.82;;;1.83;;
53309;SDS011;39197;53.200;5.792;2023-07-30T11:56:15;8.37;;;0.90;;
53309;SDS011;39197;53.200;5.792;2023-07-30T11:58:41;9.00;;;1.30;;
53309;SDS011;39197;53.200;5.792;2023-07-30T12:01:07;7.63;;;1.00;;
53309;SDS011;39197;53.200;5.792;2023-07-30T12:03:33;9.25;;;1.40;;
53309;SDS011;39197;53.200;5.792;2023-07-30T12:05:58;4.75;;;0.60;;
53309;SDS011;39197;53.200;5.792;2023-07-30T12:10:56;9.00;;;2.25;;
53309;SDS011;39197;53.200;5.792;2023-07-30T12:13:28;4.38;;;1.10;;
53309;SDS011;39197;53.200;5.792;2023-07-30T12:15:54;11.05;;;2.03;;
53309;SDS011;39197;53.200;5.792;2023-07-30T12:18:20;5.93;;;1.15;;
53309;SDS011;39197;53.200;5.792;2023-07-30T12:20:46;7.53;;;0.70;;
53309;SDS011;39197;53.200;5.792;2023-07-30T12:23:13;6.95;;;1.48;;
53309;SDS011;39197;53.200;5.792;2023-07-30T12:25:39;8.82;;;1.17;;
53309;SDS011;39197;53.200;5.792;2023-07-30T12:28:04;11.20;;;1.75;;
53309;SDS011;39197;53.200;5.792;2023-07-30T12:30:30;8.88;;;1.05;;
53309;SDS011;39197;53.200;5.792;2023-07-30T12:32:56;5.93;;;1.23;;
53309;SDS011;39197;53.200;5.792;2023-07-30T12:35:22;8.52;;;0.85;;
53309;SDS011;39197;53.200;5.792;2023-07-30T12:37:48;7.13;;;1.05;;
53309;SDS011;39197;53.200;5.792;2023-07-30T12:40:14;13.35;;;1.63;;
53309;SDS011;39197;53.200;5.792;2023-07-30T12:42:40;10.35;;;1.02;;
53309;SDS011;39197;53.200;5.792;2023-07-30T12:45:05;13.77;;;1.35;;
53309;SDS011;39197;53.200;5.792;2023-07-30T12:47:31;10.95;;;1.45;;
53309;SDS011;39197;53.200;5.792;2023-07-30T12:50:00;9.05;;;1.23;;
53309;SDS011;39197;53.200;5.792;2023-07-30T12:52:26;8.65;;;1.60;;
53309;SDS011;39197;53.200;5.792;2023-07-30T12:54:52;7.05;;;0.93;;
53309;SDS011;39197;53.200;5.792;2023-07-30T12:57:17;8.70;;;1.02;;
53309;SDS011;39197;53.200;5.792;2023-07-30T12:59:43;9.70;;;1.08;;
53309;SDS011;39197;53.200;5.792;2023-07-30T13:02:08;5.35;;;0.88;;
53309;SDS011;39197;53.200;5.792;2023-07-30T13:04:34;6.30;;;0.90;;
53309;SDS011;39197;53.200;5.792;2023-07-30T13:07:00;8.38;;;1.20;;
53309;SDS011;39197;53.200;5.792;2023-07-30T13:09:25;7.95;;;1.00;;
53309;SDS011;39197;53.200;5.792;2023-07-30T13:11:52;8.02;;;1.92;;
53309;SDS011;39197;53.200;5.792;2023-07-30T13:14:18;5.72;;;0.80;;
53309;SDS011;39197;53.200;5.792;2023-07-30T13:16:43;6.53;;;0.90;;
53309;SDS011;39197;53.200;5.792;2023-07-30T13:19:09;9.32;;;1.73;;
53309;SDS011;39197;53.200;5.792;2023-07-30T13:21:34;14.13;;;1.42;;
53309;SDS011;39197;53.200;5.792;2023-07-30T13:24:00;10.43;;;1.40;;
53309;SDS011;39197;53.200;5.792;2023-07-30T13:26:26;6.97;;;1.25;;
53309;SDS011;39197;53.200;5.792;2023-07-30T13:28:51;8.73;;;1.50;;
53309;SDS011;39197;53.200;5.792;2023-07-30T13:31:17;8.85;;;1.02;;
53309;SDS011;39197;53.200;5.792;2023-07-30T13:33:44;9.68;;;1.45;;
53309;SDS011;39197;53.200;5.792;2023-07-30T13:36:12;4.35;;;0.50;;
53309;SDS011;39197;53.200;5.792;2023-07-30T13:38:38;7.10;;;1.40;;
53309;SDS011;39197;53.200;5.792;2023-07-30T13:41:04;8.32;;;1.30;;
53309;SDS011;39197;53.200;5.792;2023-07-30T13:43:30;8.13;;;1.73;;
53309;SDS011;39197;53.200;5.792;2023-07-30T13:45:56;9.88;;;1.10;;
53309;SDS011;39197;53.200;5.792;2023-07-30T13:48:23;4.55;;;0.82;;
53309;SDS011;39197;53.200;5.792;2023-07-30T13:50:52;8.18;;;1.13;;
53309;SDS011;39197;53.200;5.792;2023-07-30T13:53:17;4.03;;;0.73;;
53309;SDS011;39197;53.200;5.792;2023-07-30T13:55:43;6.85;;;0.80;;
53309;SDS011;39197;53.200;5.792;2023-07-30T13:58:09;11.52;;;1.75;;
53309;SDS011;39197;53.200;5.792;2023-07-30T14:00:35;10.52;;;1.20;;
53309;SDS011;39197;53.200;5.792;2023-07-30T14:03:01;8.68;;;1.13;;
53309;SDS011;39197;53.200;5.792;2023-07-30T14:05:27;6.43;;;1.00;;
53309;SDS011;39197;53.200;5.792;2023-07-30T14:07:53;9.35;;;1.20;;
53309;SDS011;39197;53.200;5.792;2023-07-30T14:10:21;15.43;;;2.70;;
53309;SDS011;39197;53.200;5.792;2023-07-30T14:12:48;8.27;;;1.73;;
53309;SDS011;39197;53.200;5.792;2023-07-30T14:15:13;8.18;;;1.15;;
53309;SDS011;39197;53.200;5.792;2023-07-30T14:17:40;8.50;;;1.40;;
53309;SDS011;39197;53.200;5.792;2023-07-30T14:20:05;6.25;;;1.10;;
53309;SDS011;39197;53.200;5.792;2023-07-30T14:22:32;5.05;;;1.05;;
53309;SDS011;39197;53.200;5.792;2023-07-30T14:24:58;5.75;;;0.98;;
53309;SDS011;39197;53.200;5.792;2023-07-30T14:27:24;9.38;;;0.98;;
53309;SDS011;39197;53.200;5.792;2023-07-30T14:29:50;7.22;;;1.08;;
53309;SDS011;39197;53.200;5.792;2023-07-30T14:32:16;4.85;;;1.00;;
53309;SDS011;39197;53.200;5.792;2023-07-30T14:34:43;5.32;;;1.13;;
53309;SDS011;39197;53.200;5.792;2023-07-30T14:37:08;2.70;;;0.60;;
53309;SDS011;39197;53.200;5.792;2023-07-30T14:39:34;5.57;;;0.88;;
53309;SDS011;39197;53.200;5.792;2023-07-30T14:41:59;6.63;;;0.60;;
53309;SDS011;39197;53.200;5.792;2023-07-30T14:44:25;5.88;;;1.23;;
53309;SDS011;39197;53.200;5.792;2023-07-30T14:46:50;6.85;;;1.00;;
53309;SDS011;39197;53.200;5.792;2023-07-30T14:49:16;6.53;;;0.95;;
53309;SDS011;39197;53.200;5.792;2023-07-30T14:51:42;15.00;;;2.80;;
53309;SDS011;39197;53.200;5.792;2023-07-30T14:54:08;9.65;;;2.33;;
53309;SDS011;39197;53.200;5.792;2023-07-30T14:56:35;6.32;;;1.90;;